createdAt,value
2018-09-01T00:00:16.960Z,0
2018-09-01T00:01:27.139Z,0
2018-09-01T00:02:36.718Z,0
2018-09-01T00:03:46.572Z,0
2018-09-01T00:04:56.692Z,0
2018-09-01T00:06:06.865Z,0
2018-09-01T00:07:16.507Z,0
2018-09-01T00:08:26.369Z,0
2018-09-01T00:09:36.234Z,0
2018-09-01T00:10:46.398Z,0
2018-09-01T00:11:56.244Z,0
2018-09-01T00:13:06.147Z,0
2018-09-01T00:14:16.285Z,0
2018-09-01T00:15:25.860Z,0
2018-09-01T00:16:35.727Z,0
2018-09-01T00:17:45.576Z,0
2018-09-01T00:18:54.973Z,0
2018-09-01T00:20:04.823Z,0
2018-09-01T00:21:14.397Z,0
2018-09-01T00:22:24.518Z,0
2018-09-01T00:23:34.093Z,0
2018-09-01T00:24:44.262Z,0
2018-09-01T00:25:54.394Z,0
2018-09-01T00:27:04.519Z,0
2018-09-01T00:28:14.642Z,0
2018-09-01T00:29:24.223Z,0
2018-09-01T00:30:34.295Z,0
2018-09-01T00:31:44.590Z,0
2018-09-01T00:32:54.437Z,0
2018-09-01T00:34:04.293Z,0
2018-09-01T00:35:14.418Z,0
2018-09-01T00:36:24.592Z,0
2018-09-01T00:37:34.999Z,0
2018-09-01T00:38:44.856Z,0
2018-09-01T00:39:54.705Z,0
2018-09-01T00:41:04.558Z,0
2018-09-01T00:42:14.460Z,0
2018-09-01T00:43:24.309Z,0
2018-09-01T00:44:34.170Z,0
2018-09-01T00:45:44.300Z,0
2018-09-01T00:46:54.154Z,0
2018-09-01T00:48:04.342Z,0
2018-09-01T00:49:14.192Z,0
2018-09-01T00:50:24.049Z,0
2018-09-01T00:51:33.898Z,0
2018-09-01T00:52:44.023Z,0
2018-09-01T00:53:53.923Z,0
2018-09-01T00:55:04.071Z,0
2018-09-01T00:56:14.199Z,0
2018-09-01T00:57:24.330Z,0
2018-09-01T00:58:34.455Z,0
2018-09-01T00:59:44.358Z,0
2018-09-01T01:00:54.208Z,0
2018-09-01T01:02:04.339Z,0
2018-09-01T01:03:14.466Z,0
2018-09-01T01:04:24.594Z,0
2018-09-01T01:05:34.492Z,0
2018-09-01T01:06:44.617Z,0
2018-09-01T01:07:54.747Z,0
2018-09-01T01:09:04.883Z,0
2018-09-01T01:10:15.022Z,0
2018-09-01T01:11:25.195Z,0
2018-09-01T01:12:34.493Z,0
2018-09-01T01:13:44.348Z,0
2018-09-01T01:14:54.469Z,0
2018-09-01T01:16:04.316Z,0
2018-09-01T01:17:14.441Z,0
2018-09-01T01:18:24.577Z,0
2018-09-01T01:19:34.711Z,0
2018-09-01T01:20:44.564Z,0
2018-09-01T01:21:54.412Z,0
2018-09-01T01:23:04.267Z,0
2018-09-01T01:24:13.839Z,0
2018-09-01T01:25:23.689Z,0
2018-09-01T01:26:33.537Z,0
2018-09-01T01:27:43.658Z,0
2018-09-01T01:28:53.511Z,0
2018-09-01T01:30:03.362Z,0
2018-09-01T01:31:13.484Z,0
2018-09-01T01:32:23.052Z,0
2018-09-01T01:33:32.902Z,0
2018-09-01T01:34:42.752Z,0
2018-09-01T01:35:52.055Z,0
2018-09-01T01:37:02.182Z,0
2018-09-01T01:38:11.758Z,0
2018-09-01T01:39:21.878Z,0
2018-09-01T01:40:31.779Z,0
2018-09-01T01:41:41.913Z,0
2018-09-01T01:42:52.034Z,0
2018-09-01T01:44:02.162Z,0
2018-09-01T01:45:12.293Z,0
2018-09-01T01:46:22.190Z,0
2018-09-01T01:47:32.309Z,0
2018-09-01T01:48:42.159Z,0
2018-09-01T01:49:52.282Z,0
2018-09-01T01:51:02.403Z,0
2018-09-01T01:52:12.530Z,0
2018-09-01T01:53:22.383Z,0
2018-09-01T01:54:32.508Z,0
2018-09-01T01:55:42.363Z,0
2018-09-01T01:56:51.936Z,0
2018-09-01T01:58:02.061Z,0
2018-09-01T01:59:11.364Z,0
2018-09-01T02:00:21.499Z,0
2018-09-01T02:01:31.625Z,0
2018-09-01T02:02:41.491Z,0
2018-09-01T02:03:51.620Z,0
2018-09-01T02:05:01.786Z,0
2018-09-01T02:06:11.089Z,0
2018-09-01T02:07:21.211Z,0
2018-09-01T02:08:31.061Z,0
2018-09-01T02:09:41.239Z,0
2018-09-01T02:10:51.091Z,0
2018-09-01T02:12:01.217Z,0
2018-09-01T02:13:10.792Z,0
2018-09-01T02:14:20.364Z,0
2018-09-01T02:15:30.589Z,0
2018-09-01T02:16:40.714Z,0
2018-09-01T02:17:50.840Z,0
2018-09-01T02:19:00.414Z,0
2018-09-01T02:20:10.538Z,0
2018-09-01T02:21:20.385Z,0
2018-09-01T02:22:30.507Z,0
2018-09-01T02:23:40.631Z,0
2018-09-01T02:24:50.208Z,0
2018-09-01T02:26:00.332Z,0
2018-09-01T02:27:10.187Z,0
2018-09-01T02:28:20.045Z,0
2018-09-01T02:29:29.618Z,0
2018-09-01T02:30:39.469Z,0
2018-09-01T02:31:49.599Z,0
2018-09-01T02:32:59.732Z,0
2018-09-01T02:34:09.592Z,0
2018-09-01T02:35:19.725Z,0
2018-09-01T02:36:29.856Z,0
2018-09-01T02:37:39.715Z,0
2018-09-01T02:38:49.840Z,0
2018-09-01T02:39:59.964Z,0
2018-09-01T02:41:10.090Z,0
2018-09-01T02:42:20.213Z,0
2018-09-01T02:43:30.331Z,0
2018-09-01T02:44:39.958Z,0
2018-09-01T02:45:49.545Z,0
2018-09-01T02:46:59.405Z,0
2018-09-01T02:48:08.715Z,0
2018-09-01T02:49:18.848Z,0
2018-09-01T02:50:28.492Z,0
2018-09-01T02:51:38.364Z,0
2018-09-01T02:52:48.208Z,0
2018-09-01T02:53:58.336Z,0
2018-09-01T02:55:08.461Z,0
2018-09-01T02:56:18.309Z,0
2018-09-01T02:57:28.439Z,0
2018-09-01T02:58:38.013Z,0
2018-09-01T02:59:48.151Z,0
2018-09-01T03:00:58.269Z,0
2018-09-01T03:02:08.114Z,0
2018-09-01T03:03:18.244Z,0
2018-09-01T03:04:28.089Z,0
2018-09-01T03:05:38.226Z,0
2018-09-01T03:06:47.797Z,0
2018-09-01T03:07:57.651Z,0
2018-09-01T03:09:07.783Z,0
2018-09-01T03:10:17.902Z,0
2018-09-01T03:11:27.747Z,0
2018-09-01T03:12:37.869Z,0
2018-09-01T03:13:47.989Z,0
2018-09-01T03:14:58.108Z,0
2018-09-01T03:16:07.958Z,0
2018-09-01T03:17:18.084Z,0
2018-09-01T03:18:27.659Z,0
2018-09-01T03:19:37.777Z,0
2018-09-01T03:20:47.625Z,0
2018-09-01T03:21:57.804Z,0
2018-09-01T03:23:07.655Z,0
2018-09-01T03:24:17.778Z,0
2018-09-01T03:25:27.913Z,0
2018-09-01T03:26:37.764Z,0
2018-09-01T03:27:47.889Z,0
2018-09-01T03:28:58.010Z,4
2018-09-01T03:30:08.138Z,4
2018-09-01T03:31:18.212Z,4
2018-09-01T03:32:28.342Z,0
2018-09-01T03:33:38.520Z,4
2018-09-01T03:34:48.643Z,4
2018-09-01T03:35:58.768Z,8
2018-09-01T03:37:08.339Z,4
2018-09-01T03:38:18.231Z,8
2018-09-01T03:39:27.809Z,8
2018-09-01T03:40:37.929Z,12
2018-09-01T03:41:48.052Z,12
2018-09-01T03:42:57.899Z,12
2018-09-01T03:44:08.061Z,12
2018-09-01T03:45:18.185Z,16
2018-09-01T03:46:28.307Z,20
2018-09-01T03:47:38.187Z,20
2018-09-01T03:48:48.205Z,24
2018-09-01T03:49:58.068Z,28
2018-09-01T03:51:07.916Z,32
2018-09-01T03:52:18.059Z,40
2018-09-01T03:53:27.658Z,40
2018-09-01T03:54:37.780Z,48
2018-09-01T03:55:47.901Z,56
2018-09-01T03:56:58.027Z,64
2018-09-01T03:58:08.149Z,72
2018-09-01T03:59:18.289Z,80
2018-09-01T04:00:28.462Z,88
2018-09-01T04:01:38.312Z,100
2018-09-01T04:02:48.449Z,112
2018-09-01T04:03:58.571Z,124
2018-09-01T04:05:07.877Z,140
2018-09-01T04:06:17.453Z,156
2018-09-01T04:07:27.300Z,168
2018-09-01T04:08:37.426Z,184
2018-09-01T04:09:47.555Z,200
2018-09-01T04:10:57.402Z,220
2018-09-01T04:12:07.257Z,240
2018-09-01T04:13:17.392Z,260
2018-09-01T04:14:27.253Z,280
2018-09-01T04:15:37.099Z,300
2018-09-01T04:16:47.217Z,324
2018-09-01T04:17:57.110Z,348
2018-09-01T04:19:06.688Z,372
2018-09-01T04:20:16.812Z,400
2018-09-01T04:21:26.666Z,428
2018-09-01T04:22:36.237Z,456
2018-09-01T04:23:45.808Z,484
2018-09-01T04:24:55.933Z,512
2018-09-01T04:26:05.783Z,540
2018-09-01T04:27:15.359Z,572
2018-09-01T04:28:25.208Z,604
2018-09-01T04:29:34.782Z,636
2018-09-01T04:30:44.899Z,668
2018-09-01T04:31:55.155Z,700
2018-09-01T04:33:04.471Z,732
2018-09-01T04:34:14.054Z,764
2018-09-01T04:35:23.908Z,796
2018-09-01T04:36:34.035Z,828
2018-09-01T04:37:43.881Z,860
2018-09-01T04:38:54.004Z,892
2018-09-01T04:40:03.898Z,924
2018-09-01T04:41:13.798Z,960
2018-09-01T04:42:23.646Z,996
2018-09-01T04:43:33.778Z,1032
2018-09-01T04:44:43.632Z,1068
2018-09-01T04:45:53.480Z,1104
2018-09-01T04:47:03.937Z,1140
2018-09-01T04:48:13.591Z,1176
2018-09-01T04:49:23.442Z,1204
2018-09-01T04:50:32.738Z,1240
2018-09-01T04:51:42.615Z,1276
2018-09-01T04:52:52.514Z,1304
2018-09-01T04:54:02.649Z,1336
2018-09-01T04:55:12.784Z,1372
2018-09-01T04:56:22.911Z,1404
2018-09-01T04:57:32.760Z,1440
2018-09-01T04:58:42.932Z,1472
2018-09-01T04:59:53.054Z,1504
2018-09-01T05:01:03.447Z,1540
2018-09-01T05:02:13.936Z,1576
2018-09-01T05:03:24.072Z,1612
2018-09-01T05:04:33.974Z,1644
2018-09-01T05:05:44.106Z,1676
2018-09-01T05:06:54.249Z,1712
2018-09-01T05:08:04.098Z,1744
2018-09-01T05:09:13.949Z,1772
2018-09-01T05:10:23.900Z,1804
2018-09-01T05:11:34.031Z,1828
2018-09-01T05:12:44.154Z,1856
2018-09-01T05:13:53.733Z,1880
2018-09-01T05:15:03.874Z,1904
2018-09-01T05:16:14.104Z,1928
2018-09-01T05:17:24.226Z,1956
2018-09-01T05:18:34.360Z,1980
2018-09-01T05:19:44.496Z,2008
2018-09-01T05:20:54.632Z,2032
2018-09-01T05:22:04.803Z,2056
2018-09-01T05:23:14.649Z,2088
2018-09-01T05:24:24.778Z,2112
2018-09-01T05:25:34.899Z,2140
2018-09-01T05:26:45.027Z,2168
2018-09-01T05:27:54.931Z,2196
2018-09-01T05:29:05.069Z,2216
2018-09-01T05:30:14.650Z,2244
2018-09-01T05:31:24.503Z,2264
2018-09-01T05:32:34.077Z,2284
2018-09-01T05:33:44.273Z,2308
2018-09-01T05:34:54.404Z,2328
2018-09-01T05:36:04.251Z,2344
2018-09-01T05:37:14.373Z,2364
2018-09-01T05:38:23.946Z,2388
2018-09-01T05:39:34.071Z,2408
2018-09-01T05:40:44.201Z,2424
2018-09-01T05:41:54.049Z,2448
2018-09-01T05:43:04.180Z,2464
2018-09-01T05:44:14.305Z,2484
2018-09-01T05:45:24.481Z,2504
2018-09-01T05:46:34.652Z,2524
2018-09-01T05:47:44.775Z,2536
2018-09-01T05:48:54.899Z,2552
2018-09-01T05:50:05.021Z,2572
2018-09-01T05:51:14.927Z,2588
2018-09-01T05:52:25.053Z,2600
2018-09-01T05:53:34.901Z,2620
2018-09-01T05:54:45.030Z,2632
2018-09-01T05:55:55.152Z,2652
2018-09-01T05:57:05.046Z,2664
2018-09-01T05:58:15.169Z,2676
2018-09-01T05:59:25.023Z,2692
2018-09-01T06:00:34.765Z,2708
2018-09-01T06:01:44.680Z,2724
2018-09-01T06:02:54.803Z,2736
2018-09-01T06:04:04.930Z,2756
2018-09-01T06:05:15.053Z,2768
2018-09-01T06:06:25.624Z,2784
2018-09-01T06:07:35.436Z,2796
2018-09-01T06:08:45.335Z,2808
2018-09-01T06:09:55.183Z,2824
2018-09-01T06:11:05.037Z,2836
2018-09-01T06:12:15.160Z,2852
2018-09-01T06:13:25.012Z,2868
2018-09-01T06:14:34.862Z,2884
2018-09-01T06:15:44.988Z,2896
2018-09-01T06:16:55.114Z,2912
2018-09-01T06:18:05.072Z,2928
2018-09-01T06:19:15.332Z,2936
2018-09-01T06:20:25.631Z,2952
2018-09-01T06:21:35.756Z,2964
2018-09-01T06:22:45.608Z,2976
2018-09-01T06:23:55.703Z,2988
2018-09-01T06:25:06.105Z,3000
2018-09-01T06:26:15.957Z,3012
2018-09-01T06:27:26.092Z,3028
2018-09-01T06:28:35.395Z,3040
2018-09-01T06:29:45.530Z,3048
2018-09-01T06:30:55.658Z,3064
2018-09-01T06:32:05.841Z,3076
2018-09-01T06:33:15.706Z,3080
2018-09-01T06:34:25.042Z,3092
2018-09-01T06:35:34.899Z,3104
2018-09-01T06:36:44.752Z,3112
2018-09-01T06:38:08.475Z,3124
2018-09-01T06:39:18.873Z,3136
2018-09-01T06:40:29.276Z,3144
2018-09-01T06:41:39.196Z,3156
2018-09-01T06:42:48.499Z,3160
2018-09-01T06:43:58.082Z,3168
2018-09-01T06:45:07.947Z,3176
2018-09-01T06:46:18.074Z,3184
2018-09-01T06:47:27.928Z,3188
2018-09-01T06:48:37.829Z,3196
2018-09-01T06:49:47.688Z,3200
2018-09-01T06:50:57.813Z,3208
2018-09-01T06:52:07.947Z,3216
2018-09-01T06:53:17.523Z,3224
2018-09-01T06:54:27.380Z,3228
2018-09-01T06:55:37.509Z,3240
2018-09-01T06:56:47.639Z,3240
2018-09-01T06:57:57.217Z,3244
2018-09-01T06:59:06.846Z,3252
2018-09-01T07:00:17.028Z,3260
2018-09-01T07:01:26.882Z,3268
2018-09-01T07:02:36.736Z,3268
2018-09-01T07:03:46.592Z,3280
2018-09-01T07:04:56.447Z,3284
2018-09-01T07:06:06.080Z,3288
2018-09-01T07:07:16.199Z,3296
2018-09-01T07:08:26.048Z,3300
2018-09-01T07:09:36.166Z,3308
2018-09-01T07:10:46.014Z,3312
2018-09-01T07:11:56.148Z,3320
2018-09-01T07:13:06.272Z,3328
2018-09-01T07:14:16.399Z,3336
2018-09-01T07:15:26.254Z,3348
2018-09-01T07:16:36.102Z,3352
2018-09-01T07:17:45.732Z,3360
2018-09-01T07:18:55.580Z,3368
2018-09-01T07:20:05.440Z,3376
2018-09-01T07:21:15.290Z,3388
2018-09-01T07:22:25.415Z,3396
2018-09-01T07:23:35.641Z,3404
2018-09-01T07:24:45.221Z,3416
2018-09-01T07:25:54.520Z,3424
2018-09-01T07:27:04.096Z,3436
2018-09-01T07:28:14.222Z,3448
2018-09-01T07:29:23.574Z,3460
2018-09-01T07:30:34.867Z,3472
2018-09-01T07:31:46.018Z,3484
2018-09-01T07:32:56.148Z,3496
2018-09-01T07:34:06.000Z,3512
2018-09-01T07:35:15.355Z,3520
2018-09-01T07:36:25.481Z,3536
2018-09-01T07:37:35.603Z,3548
2018-09-01T07:38:45.460Z,3556
2018-09-01T07:39:55.592Z,3572
2018-09-01T07:41:05.170Z,3588
2018-09-01T07:42:15.296Z,3600
2018-09-01T07:43:25.148Z,3616
2018-09-01T07:44:35.009Z,3624
2018-09-01T07:45:45.137Z,3640
2018-09-01T07:46:54.984Z,3648
2018-09-01T07:48:05.107Z,3664
2018-09-01T07:49:15.233Z,3672
2018-09-01T07:50:25.085Z,3684
2018-09-01T07:51:35.222Z,3696
2018-09-01T07:52:45.354Z,3708
2018-09-01T07:53:54.927Z,3724
2018-09-01T07:55:05.052Z,3732
2018-09-01T07:56:15.849Z,3748
2018-09-01T07:57:25.993Z,3756
2018-09-01T07:58:36.149Z,3772
2018-09-01T07:59:45.727Z,3784
2018-09-01T08:00:55.578Z,3796
2018-09-01T08:02:05.711Z,3804
2018-09-01T08:03:15.293Z,3812
2018-09-01T08:04:24.923Z,3828
2018-09-01T08:05:35.108Z,3840
2018-09-01T08:06:44.696Z,3848
2018-09-01T08:07:54.825Z,3864
2018-09-01T08:09:04.673Z,3872
2018-09-01T08:10:14.797Z,3884
2018-09-01T08:11:24.650Z,3900
2018-09-01T08:12:34.505Z,3912
2018-09-01T08:13:44.599Z,3928
2018-09-01T08:14:54.676Z,3940
2018-09-01T08:16:04.528Z,3956
2018-09-01T08:17:14.382Z,3964
2018-09-01T08:18:24.512Z,3980
2018-09-01T08:19:34.365Z,3996
2018-09-01T08:20:43.946Z,4008
2018-09-01T08:21:54.085Z,4024
2018-09-01T08:23:03.945Z,4036
2018-09-01T08:24:13.803Z,4044
2018-09-01T08:25:23.384Z,4060
2018-09-01T08:26:33.518Z,4072
2018-09-01T08:27:43.647Z,4080
2018-09-01T08:28:53.782Z,4092
2018-09-01T08:30:03.638Z,4108
2018-09-01T08:31:13.770Z,4120
2018-09-01T08:32:23.891Z,4128
2018-09-01T08:33:34.178Z,4140
2018-09-01T08:34:44.370Z,4156
2018-09-01T08:35:54.494Z,4172
2018-09-01T08:37:04.349Z,4192
2018-09-01T08:38:14.516Z,4208
2018-09-01T08:39:24.643Z,4232
2018-09-01T08:40:34.777Z,4248
2018-09-01T08:41:44.906Z,4268
2018-09-01T08:42:54.757Z,4284
2018-09-01T08:44:04.624Z,4316
2018-09-01T08:45:14.501Z,4336
2018-09-01T08:46:24.645Z,4360
2018-09-01T08:47:34.508Z,4384
2018-09-01T08:48:44.640Z,4404
2018-09-01T08:49:54.494Z,4428
2018-09-01T08:51:04.346Z,4456
2018-09-01T08:52:13.923Z,4480
2018-09-01T08:53:23.776Z,4520
2018-09-01T08:54:33.630Z,4556
2018-09-01T08:55:42.936Z,4596
2018-09-01T08:56:52.799Z,4644
2018-09-01T08:58:02.655Z,4688
2018-09-01T08:59:12.229Z,4736
2018-09-01T09:00:22.086Z,4780
2018-09-01T09:01:31.937Z,4836
2018-09-01T09:02:41.801Z,4896
2018-09-01T09:03:51.944Z,4964
2018-09-01T09:05:01.249Z,5024
2018-09-01T09:06:10.839Z,5088
2018-09-01T09:07:20.698Z,5164
2018-09-01T09:08:30.825Z,5260
2018-09-01T09:09:40.681Z,5356
2018-09-01T09:10:50.534Z,5464
2018-09-01T09:12:00.663Z,5576
2018-09-01T09:13:10.527Z,5692
2018-09-01T09:14:20.396Z,5788
2018-09-01T09:15:29.978Z,5876
2018-09-01T09:16:40.111Z,5952
2018-09-01T09:17:50.253Z,6036
2018-09-01T09:19:00.393Z,6128
2018-09-01T09:20:10.528Z,6228
2018-09-01T09:21:20.653Z,6344
2018-09-01T09:22:30.781Z,6484
2018-09-01T09:23:40.906Z,6636
2018-09-01T09:24:50.762Z,6792
2018-09-01T09:26:00.339Z,6944
2018-09-01T09:27:10.466Z,7096
2018-09-01T09:28:20.367Z,7256
2018-09-01T09:29:30.494Z,7420
2018-09-01T09:30:40.621Z,7564
2018-09-01T09:31:50.802Z,7640
2018-09-01T09:33:00.937Z,7820
2018-09-01T09:34:10.787Z,8032
2018-09-01T09:35:20.921Z,8180
2018-09-01T09:36:31.105Z,8312
2018-09-01T09:37:41.288Z,8424
2018-09-01T09:38:51.146Z,8356
2018-09-01T09:40:01.270Z,8256
2018-09-01T09:41:11.401Z,8028
2018-09-01T09:42:21.270Z,7704
2018-09-01T09:43:31.466Z,7508
2018-09-01T09:44:41.601Z,7636
2018-09-01T09:45:51.460Z,7636
2018-09-01T09:47:01.312Z,7524
2018-09-01T09:48:11.174Z,7588
2018-09-01T09:49:21.034Z,7680
2018-09-01T09:50:31.205Z,7804
2018-09-01T09:51:41.057Z,8108
2018-09-01T09:52:50.659Z,8316
2018-09-01T09:54:00.863Z,8596
2018-09-01T09:55:10.176Z,8880
2018-09-01T09:56:20.315Z,9188
2018-09-01T09:57:29.908Z,9480
2018-09-01T09:58:40.036Z,9784
2018-09-01T09:59:50.172Z,10076
2018-09-01T10:01:00.195Z,10356
2018-09-01T10:02:10.321Z,10612
2018-09-01T10:03:20.464Z,10756
2018-09-01T10:04:30.805Z,10916
2018-09-01T10:05:41.011Z,10604
2018-09-01T10:06:51.156Z,11092
2018-09-01T10:08:01.290Z,10760
2018-09-01T10:09:10.880Z,10836
2018-09-01T10:10:21.023Z,11196
2018-09-01T10:11:31.162Z,11212
2018-09-01T10:12:41.300Z,10920
2018-09-01T10:13:50.889Z,10848
2018-09-01T10:15:00.744Z,10516
2018-09-01T10:16:10.600Z,10424
2018-09-01T10:17:19.908Z,10372
2018-09-01T10:18:29.486Z,10176
2018-09-01T10:19:39.615Z,10400
2018-09-01T10:20:49.486Z,10536
2018-09-01T10:21:59.075Z,11044
2018-09-01T10:23:08.973Z,11228
2018-09-01T10:24:19.163Z,11220
2018-09-01T10:25:29.302Z,11284
2018-09-01T10:26:39.447Z,11168
2018-09-01T10:27:49.037Z,10968
2018-09-01T10:28:59.172Z,10804
2018-09-01T10:30:09.040Z,10596
2018-09-01T10:31:19.189Z,10544
2018-09-01T10:32:29.045Z,10520
2018-09-01T10:33:38.906Z,10600
2018-09-01T10:34:48.575Z,10944
2018-09-01T10:35:58.895Z,11024
2018-09-01T10:37:09.051Z,11248
2018-09-01T10:38:18.684Z,11148
2018-09-01T10:39:28.289Z,11120
2018-09-01T10:40:38.428Z,11056
2018-09-01T10:41:48.295Z,10920
2018-09-01T10:42:58.432Z,10820
2018-09-01T10:44:08.567Z,10792
2018-09-01T10:45:18.700Z,10756
2018-09-01T10:46:28.640Z,10652
2018-09-01T10:47:38.828Z,10688
2018-09-01T10:48:48.685Z,10676
2018-09-01T10:49:58.813Z,10408
2018-09-01T10:51:08.418Z,10620
2018-09-01T10:52:18.270Z,10688
2018-09-01T10:53:28.415Z,10860
2018-09-01T10:54:38.552Z,11004
2018-09-01T10:55:48.404Z,11200
2018-09-01T10:56:58.260Z,11348
2018-09-01T10:58:08.391Z,11592
2018-09-01T10:59:19.159Z,11784
2018-09-01T11:00:29.551Z,12056
2018-09-01T11:01:39.407Z,12188
2018-09-01T11:02:48.719Z,12240
2018-09-01T11:03:58.579Z,12296
2018-09-01T11:05:08.612Z,12244
2018-09-01T11:06:18.540Z,12248
2018-09-01T11:07:28.677Z,12272
2018-09-01T11:08:38.811Z,12308
2018-09-01T11:09:48.945Z,12440
2018-09-01T11:10:59.102Z,12408
2018-09-01T11:12:08.957Z,12532
2018-09-01T11:13:18.266Z,12596
2018-09-01T11:14:28.452Z,12892
2018-09-01T11:15:38.307Z,13956
2018-09-01T11:16:48.192Z,26816
2018-09-01T11:17:58.093Z,54016
2018-09-01T11:19:08.228Z,61600
2018-09-01T11:20:18.116Z,61504
2018-09-01T11:21:28.170Z,64576
2018-09-01T11:22:38.307Z,63488
2018-09-01T11:23:48.168Z,61728
2018-09-01T11:24:58.307Z,61632
2018-09-01T11:26:08.170Z,63936
2018-09-01T11:27:18.337Z,66080
2018-09-01T11:28:28.585Z,67072
2018-09-01T11:29:38.175Z,65056
2018-09-01T11:30:48.363Z,60416
2018-09-01T11:31:58.234Z,61408
2018-09-01T11:33:08.127Z,64864
2018-09-01T11:34:18.070Z,56352
2018-09-01T11:35:27.673Z,51488
2018-09-01T11:36:37.982Z,44544
2018-09-01T11:37:47.945Z,44000
2018-09-01T11:38:58.085Z,37184
2018-09-01T11:40:07.686Z,36704
2018-09-01T11:41:17.557Z,39264
2018-09-01T11:42:27.228Z,36960
2018-09-01T11:43:36.938Z,41120
2018-09-01T11:44:47.072Z,39968
2018-09-01T11:45:56.663Z,32768
2018-09-01T11:47:06.800Z,20192
2018-09-01T11:48:16.949Z,28192
2018-09-01T11:49:26.596Z,29600
2018-09-01T11:50:36.738Z,28256
2018-09-01T11:51:46.054Z,24512
2018-09-01T11:52:55.653Z,21760
2018-09-01T11:54:05.567Z,22400
2018-09-01T11:55:15.765Z,18400
2018-09-01T11:56:25.961Z,17664
2018-09-01T11:57:35.805Z,19936
2018-09-01T11:58:46.263Z,20000
2018-09-01T11:59:56.031Z,19744
2018-09-01T12:01:05.621Z,20128
2018-09-01T12:02:16.071Z,21440
2018-09-01T12:03:26.149Z,22272
2018-09-01T12:04:36.073Z,23008
2018-09-01T12:05:45.661Z,23392
2018-09-01T12:06:55.248Z,25152
2018-09-01T12:08:05.384Z,25248
2018-09-01T12:09:16.016Z,25184
2018-09-01T12:10:26.231Z,25408
2018-09-01T12:11:35.817Z,26176
2018-09-01T12:12:46.003Z,29856
2018-09-01T12:13:55.944Z,29024
2018-09-01T12:15:05.862Z,28256
2018-09-01T12:16:15.725Z,27872
2018-09-01T12:17:25.859Z,25504
2018-09-01T12:18:35.998Z,23232
2018-09-01T12:19:45.867Z,20992
2018-09-01T12:20:55.728Z,19360
2018-09-01T12:22:05.611Z,20576
2018-09-01T12:23:15.477Z,20096
2018-09-01T12:24:25.341Z,21024
2018-09-01T12:25:34.928Z,21920
2018-09-01T12:26:45.067Z,21984
2018-09-01T12:27:54.654Z,21472
2018-09-01T12:29:04.523Z,21184
2018-09-01T12:30:14.117Z,21056
2018-09-01T12:31:23.709Z,19744
2018-09-01T12:32:33.580Z,18944
2018-09-01T12:33:43.721Z,18528
2018-09-01T12:34:53.870Z,18272
2018-09-01T12:36:04.025Z,17792
2018-09-01T12:37:14.262Z,17664
2018-09-01T12:38:24.399Z,17248
2018-09-01T12:39:34.537Z,17408
2018-09-01T12:40:44.675Z,17472
2018-09-01T12:41:54.559Z,17504
2018-09-01T12:43:04.734Z,18944
2018-09-01T12:44:14.879Z,20288
2018-09-01T12:45:24.754Z,23776
2018-09-01T12:46:34.893Z,30272
2018-09-01T12:47:44.202Z,33216
2018-09-01T12:48:54.109Z,39136
2018-09-01T12:50:04.246Z,43200
2018-09-01T12:51:14.109Z,46688
2018-09-01T12:52:23.422Z,45952
2018-09-01T12:53:33.288Z,47552
2018-09-01T12:54:43.432Z,47968
2018-09-01T12:55:53.574Z,42208
2018-09-01T12:57:03.453Z,45440
2018-09-01T12:58:13.312Z,47040
2018-09-01T12:59:23.462Z,53280
2018-09-01T13:00:33.643Z,63200
2018-09-01T13:01:43.855Z,69600
2018-09-01T13:02:53.716Z,72064
2018-09-01T13:04:03.854Z,64896
2018-09-01T13:05:13.723Z,62944
2018-09-01T13:06:23.866Z,62528
2018-09-01T13:07:34.017Z,60512
2018-09-01T13:08:43.614Z,60960
2018-09-01T13:09:53.479Z,62912
2018-09-01T13:11:03.352Z,62080
2018-09-01T13:12:13.220Z,60032
2018-09-01T13:13:23.084Z,60832
2018-09-01T13:14:32.953Z,63936
2018-09-01T13:15:43.092Z,63264
2018-09-01T13:16:52.964Z,64544
2018-09-01T13:18:02.566Z,67936
2018-09-01T13:19:12.441Z,66816
2018-09-01T13:20:22.312Z,68160
2018-09-01T13:21:32.198Z,66656
2018-09-01T13:22:42.348Z,67968
2018-09-01T13:23:52.217Z,68288
2018-09-01T13:25:02.093Z,69728
2018-09-01T13:26:11.417Z,70752
2018-09-01T13:27:21.569Z,71072
2018-09-01T13:28:31.168Z,70816
2018-09-01T13:29:40.765Z,70688
2018-09-01T13:30:50.639Z,72096
2018-09-01T13:32:00.790Z,68736
2018-09-01T13:33:10.936Z,67904
2018-09-01T13:34:21.318Z,67776
2018-09-01T13:35:31.555Z,64896
2018-09-01T13:36:41.703Z,64416
2018-09-01T13:37:50.753Z,37632
2018-09-01T13:39:01.339Z,51200
2018-09-01T13:40:12.079Z,38848
2018-09-01T13:41:21.768Z,24704
2018-09-01T13:42:31.911Z,21248
2018-09-01T13:43:41.784Z,20032
2018-09-01T13:44:52.237Z,19744
2018-09-01T13:46:02.607Z,23040
2018-09-01T13:47:12.873Z,23136
2018-09-01T13:48:23.017Z,23840
2018-09-01T13:49:32.614Z,22752
2018-09-01T13:50:42.756Z,22336
2018-09-01T13:51:52.898Z,22176
2018-09-01T13:53:02.496Z,22432
2018-09-01T13:54:12.089Z,20672
2018-09-01T13:55:22.233Z,21952
2018-09-01T13:56:32.104Z,24608
2018-09-01T13:57:41.976Z,45088
2018-09-01T13:58:51.568Z,40320
2018-09-01T14:00:01.767Z,42432
2018-09-01T14:01:11.638Z,31712
2018-09-01T14:02:21.776Z,26944
2018-09-01T14:03:31.099Z,23360
2018-09-01T14:04:40.694Z,25088
2018-09-01T14:05:50.565Z,32000
2018-09-01T14:07:00.712Z,40576
2018-09-01T14:08:10.858Z,48736
2018-09-01T14:09:20.727Z,47424
2018-09-01T14:10:30.874Z,39584
2018-09-01T14:11:40.741Z,56512
2018-09-01T14:12:50.885Z,61248
2018-09-01T14:14:00.760Z,69504
2018-09-01T14:15:10.363Z,73152
2018-09-01T14:16:20.523Z,71104
2018-09-01T14:17:30.396Z,64736
2018-09-01T14:18:40.263Z,58752
2018-09-01T14:19:50.408Z,60800
2018-09-01T14:21:00.592Z,63456
2018-09-01T14:22:10.239Z,58912
2018-09-01T14:23:20.391Z,58496
2018-09-01T14:24:30.583Z,57888
2018-09-01T14:25:40.181Z,60576
2018-09-01T14:26:50.058Z,61536
2018-09-01T14:28:00.209Z,65248
2018-09-01T14:29:12.078Z,67520
2018-09-01T14:30:21.960Z,66400
2018-09-01T14:31:32.105Z,66592
2018-09-01T14:32:42.254Z,69440
2018-09-01T14:33:52.128Z,69824
2018-09-01T14:35:02.286Z,70368
2018-09-01T14:36:11.883Z,61632
2018-09-01T14:37:22.254Z,62400
2018-09-01T14:38:32.596Z,55456
2018-09-01T14:39:43.020Z,63648
2018-09-01T14:40:52.905Z,58656
2018-09-01T14:42:03.047Z,53344
2018-09-01T14:43:12.643Z,52704
2018-09-01T14:44:22.778Z,26304
2018-09-01T14:45:32.652Z,43552
2018-09-01T14:46:43.067Z,52576
2018-09-01T14:47:53.421Z,55392
2018-09-01T14:49:03.294Z,53728
2018-09-01T14:50:13.474Z,57760
2018-09-01T14:51:23.617Z,59072
2018-09-01T14:52:33.804Z,59808
2018-09-01T14:53:43.667Z,61216
2018-09-01T14:54:53.811Z,62944
2018-09-01T14:56:03.681Z,55872
2018-09-01T14:57:13.824Z,57536
2018-09-01T14:58:23.685Z,53728
2018-09-01T14:59:33.283Z,58944
2018-09-01T15:00:43.434Z,57216
2018-09-01T15:01:53.569Z,54208
2018-09-01T15:03:03.435Z,61856
2018-09-01T15:04:13.577Z,61024
2018-09-01T15:05:23.717Z,61984
2018-09-01T15:06:33.583Z,55392
2018-09-01T15:07:43.455Z,61472
2018-09-01T15:08:53.645Z,61248
2018-09-01T15:10:03.843Z,63424
2018-09-01T15:11:13.980Z,61312
2018-09-01T15:12:23.571Z,59936
2018-09-01T15:13:33.748Z,62784
2018-09-01T15:14:43.620Z,61120
2018-09-01T15:15:53.487Z,58848
2018-09-01T15:17:03.632Z,58432
2018-09-01T15:18:13.776Z,58304
2018-09-01T15:19:23.645Z,59008
2018-09-01T15:20:33.509Z,60576
2018-09-01T15:21:43.373Z,41856
2018-09-01T15:22:53.530Z,15048
2018-09-01T15:24:03.673Z,15676
2018-09-01T15:25:13.807Z,9904
2018-09-01T15:26:23.675Z,12312
2018-09-01T15:27:33.541Z,9356
2018-09-01T15:28:44.157Z,8572
2018-09-01T15:29:54.303Z,8608
2018-09-01T15:31:03.902Z,11124
2018-09-01T15:32:13.504Z,10772
2018-09-01T15:33:23.645Z,8120
2018-09-01T15:34:33.785Z,7500
2018-09-01T15:35:43.935Z,7084
2018-09-01T15:36:53.806Z,8044
2018-09-01T15:38:03.667Z,6516
2018-09-01T15:39:13.534Z,12028
2018-09-01T15:40:23.673Z,10864
2018-09-01T15:41:33.811Z,7668
2018-09-01T15:42:43.402Z,6244
2018-09-01T15:43:53.269Z,6268
2018-09-01T15:45:02.910Z,6328